Time;durP1;ratioP1;P1;durP2;ratioP2;P2;SDS_P1;SDS_P2;PMS_P1;PMS_P2;Temp;Humidity;BMP_temperature;BMP_pressure;BME280_temperature;BME280_humidity;BME280_pressure;Samples;Min_cycle;Max_cycle;Signal;HPM_P1;HPM_P2
2023/07/11 00:00:57;;;;;;;6.57;5.87;;;19.70;99.90;;;;;;5090470;28;20525;-72
2023/07/11 00:03:23;;;;;;;6.40;5.80;;;19.80;99.90;;;;;;5082880;28;20181;-72
2023/07/11 00:06:07;;;;;;;6.33;5.77;;;19.80;99.90;;;;;;5089299;28;20666;-72
2023/07/11 00:08:33;;;;;;;6.13;5.47;;;19.90;99.90;;;;;;5090999;28;20307;-72
2023/07/11 00:10:59;;;;;;;6.67;6.10;;;19.80;99.90;;;;;;5089448;28;20965;-71
2023/07/11 00:13:24;;;;;;;7.03;5.93;;;19.80;99.90;;;;;;5085210;28;20464;-70
2023/07/11 00:16:02;;;;;;;7.40;6.70;;;19.80;99.90;;;;;;5087990;28;20191;-71
2023/07/11 00:18:28;;;;;;;6.97;6.47;;;19.70;99.90;;;;;;5089389;28;20168;-72
2023/07/11 00:20:53;;;;;;;7.23;6.50;;;19.60;99.90;;;;;;5089255;28;20433;-69
2023/07/11 00:23:19;;;;;;;7.47;6.27;;;19.60;99.90;;;;;;5087850;28;20242;-71
2023/07/11 00:25:45;;;;;;;7.00;5.90;;;19.60;99.90;;;;;;5084814;28;20251;-71
2023/07/11 00:28:11;;;;;;;7.60;6.50;;;19.50;99.90;;;;;;5089157;28;20164;-71
2023/07/11 00:30:40;;;;;;;7.00;6.40;;;19.50;99.90;;;;;;5088687;28;20206;-71
2023/07/11 00:33:05;;;;;;;7.50;6.83;;;19.50;99.90;;;;;;5080767;28;20436;-71
2023/07/11 00:35:31;;;;;;;6.73;6.10;;;19.50;99.90;;;;;;5089024;28;20749;-72
2023/07/11 00:37:56;;;;;;;10.40;6.33;;;19.50;99.90;;;;;;5090003;28;20177;-71
2023/07/11 00:40:22;;;;;;;7.70;6.90;;;19.50;99.90;;;;;;5086875;28;20230;-69
2023/07/11 00:42:53;;;;;;;7.23;6.53;;;19.50;99.90;;;;;;5090236;28;20180;-70
2023/07/11 00:45:56;;;;;;;6.43;5.83;;;19.50;99.90;;;;;;5086342;28;20219;-71
2023/07/11 00:48:23;;;;;;;6.20;5.57;;;19.50;99.90;;;;;;5086031;28;20433;-72
2023/07/11 00:50:50;;;;;;;6.90;6.33;;;19.40;99.90;;;;;;5083537;28;20975;-69
2023/07/11 00:53:17;;;;;;;7.80;7.03;;;19.30;99.90;;;;;;5085558;28;20429;-71
2023/07/11 00:55:44;;;;;;;6.37;5.80;;;19.40;99.90;;;;;;5087689;28;20433;-72
2023/07/11 00:58:11;;;;;;;6.70;6.20;;;19.30;99.90;;;;;;5086836;28;20420;-72
2023/07/11 01:00:36;;;;;;;6.57;6.07;;;19.20;99.90;;;;;;5084561;28;20441;-74
2023/07/11 01:03:02;;;;;;;7.10;6.40;;;19.20;99.90;;;;;;5083160;28;20807;-72
2023/07/11 01:05:28;;;;;;;7.70;6.70;;;19.30;99.90;;;;;;5087826;28;20191;-72
2023/07/11 01:07:53;;;;;;;5.90;5.33;;;19.20;99.90;;;;;;5089882;28;20182;-72
2023/07/11 01:10:19;;;;;;;7.17;6.33;;;19.20;99.90;;;;;;5087294;28;20696;-70
2023/07/11 01:12:47;;;;;;;6.87;6.27;;;19.20;99.90;;;;;;5071550;28;20179;-71
2023/07/11 01:15:13;;;;;;;6.57;5.97;;;19.10;99.90;;;;;;5088393;28;20201;-73
2023/07/11 01:17:39;;;;;;;8.33;7.23;;;19.10;99.90;;;;;;5083402;28;20463;-71
2023/07/11 01:20:08;;;;;;;7.43;6.80;;;19.10;99.90;;;;;;5087535;28;20440;-71
2023/07/11 01:22:36;;;;;;;7.87;7.20;;;19.00;99.90;;;;;;5087722;28;20428;-71
2023/07/11 01:25:08;;;;;;;8.63;6.77;;;19.00;99.90;;;;;;5079981;28;20442;-71
2023/07/11 01:27:34;;;;;;;7.70;7.00;;;19.00;99.90;;;;;;5086745;28;20416;-71
2023/07/11 01:30:04;;;;;;;6.33;5.77;;;18.90;99.90;;;;;;5087414;28;20461;-71
2023/07/11 01:32:30;;;;;;;8.47;7.57;;;19.00;99.90;;;;;;5087306;28;20512;-71
2023/07/11 01:34:56;;;;;;;6.60;6.00;;;18.90;99.90;;;;;;5088349;28;21103;-71
2023/07/11 01:37:21;;;;;;;7.40;6.77;;;18.90;99.90;;;;;;5088509;28;20421;-71
2023/07/11 01:39:47;;;;;;;6.80;6.10;;;18.80;99.90;;;;;;5087589;28;20228;-72
2023/07/11 01:42:13;;;;;;;7.20;6.60;;;18.90;99.90;;;;;;5082498;28;20227;-71
2023/07/11 01:44:38;;;;;;;7.13;6.50;;;19.00;99.90;;;;;;5086942;28;20210;-72
2023/07/11 01:47:06;;;;;;;6.47;5.97;;;19.00;99.90;;;;;;5087525;28;20174;-72
2023/07/11 01:49:31;;;;;;;7.50;6.80;;;18.90;99.90;;;;;;5086672;28;20515;-72
2023/07/11 01:52:22;;;;;;;7.73;7.03;;;18.80;99.90;;;;;;5088141;28;20456;-71
2023/07/11 01:54:48;;;;;;;7.77;6.97;;;18.80;99.90;;;;;;5083141;28;20195;-71
2023/07/11 01:57:14;;;;;;;10.63;7.00;;;18.80;99.90;;;;;;5085263;28;20876;-71
2023/07/11 01:59:40;;;;;;;7.67;7.07;;;18.70;99.90;;;;;;5083386;28;20519;-71
2023/07/11 02:02:07;;;;;;;8.47;7.67;;;18.70;99.90;;;;;;5085080;28;20203;-72
2023/07/11 02:04:33;;;;;;;7.77;6.97;;;18.80;99.90;;;;;;5080339;28;20513;-70
2023/07/11 02:06:59;;;;;;;8.93;6.40;;;18.80;99.90;;;;;;5087156;28;20436;-72
2023/07/11 02:09:25;;;;;;;7.67;6.97;;;18.80;99.90;;;;;;5088792;28;20428;-71
2023/07/11 02:11:51;;;;;;;7.13;6.53;;;18.70;99.90;;;;;;5088949;28;20234;-72
2023/07/11 02:14:19;;;;;;;6.57;5.97;;;18.70;99.90;;;;;;5090289;28;20665;-72
2023/07/11 02:16:46;;;;;;;7.20;6.53;;;18.70;99.90;;;;;;5080666;28;20209;-71
2023/07/11 02:19:14;;;;;;;8.20;7.40;;;18.60;99.90;;;;;;5089942;28;20474;-71
2023/07/11 02:21:40;;;;;;;6.63;6.00;;;18.60;99.90;;;;;;5089356;28;20430;-71
2023/07/11 02:24:08;;;;;;;8.17;7.20;;;18.70;99.90;;;;;;5070591;28;20492;-71
2023/07/11 02:26:34;;;;;;;7.43;6.77;;;18.60;99.90;;;;;;5092166;28;20415;-71
2023/07/11 02:29:00;;;;;;;7.33;6.73;;;18.70;99.90;;;;;;5088384;28;20570;-70
2023/07/11 02:31:25;;;;;;;8.33;7.53;;;18.60;99.90;;;;;;5091920;28;20214;-70
2023/07/11 02:33:51;;;;;;;7.80;6.50;;;18.60;99.90;;;;;;5087539;28;20196;-71
2023/07/11 02:36:17;;;;;;;7.23;6.60;;;18.50;99.90;;;;;;5090108;28;20415;-72
2023/07/11 02:38:43;;;;;;;7.20;6.60;;;18.50;99.90;;;;;;5092570;28;20624;-72
2023/07/11 02:41:09;;;;;;;8.60;7.80;;;18.50;99.90;;;;;;5088210;28;20197;-72
2023/07/11 02:43:34;;;;;;;7.97;7.27;;;18.60;99.90;;;;;;5073979;28;20814;-72
2023/07/11 02:46:00;;;;;;;6.90;6.30;;;18.60;99.90;;;;;;5087343;28;20198;-71
2023/07/11 02:48:26;;;;;;;8.57;7.67;;;18.50;99.90;;;;;;5089396;28;20690;-72
2023/07/11 02:50:52;;;;;;;8.10;7.20;;;18.40;99.90;;;;;;5093071;28;20192;-72
2023/07/11 02:53:17;;;;;;;7.53;6.93;;;18.40;99.90;;;;;;5089424;28;20174;-72
2023/07/11 02:55:43;;;;;;;6.90;6.30;;;18.30;99.90;;;;;;5061675;28;20194;-72
2023/07/11 02:58:10;;;;;;;7.90;7.10;;;18.30;99.90;;;;;;5089070;28;20219;-72
2023/07/11 03:00:36;;;;;;;6.80;6.20;;;18.30;99.90;;;;;;5091788;28;20430;-72
2023/07/11 03:03:02;;;;;;;7.30;6.20;;;18.30;99.90;;;;;;5086904;28;20449;-71
2023/07/11 03:05:28;;;;;;;7.80;7.10;;;18.30;99.90;;;;;;5071090;28;20417;-72
2023/07/11 03:07:54;;;;;;;10.90;7.50;;;18.20;99.90;;;;;;5091472;28;20427;-71
2023/07/11 03:10:19;;;;;;;6.97;6.40;;;18.30;99.90;;;;;;5091476;28;20456;-72
2023/07/11 03:12:45;;;;;;;8.57;7.57;;;18.40;99.90;;;;;;5091480;28;20615;-71
2023/07/11 03:15:10;;;;;;;7.70;7.00;;;18.30;99.90;;;;;;5086326;28;20690;-72
2023/07/11 03:17:36;;;;;;;8.77;7.57;;;18.30;99.90;;;;;;5089673;28;20190;-71
2023/07/11 03:20:02;;;;;;;8.33;6.73;;;18.30;99.90;;;;;;5086918;28;20205;-72
2023/07/11 03:22:29;;;;;;;7.90;7.20;;;18.50;99.90;;;;;;5091513;28;20264;-71
2023/07/11 03:24:54;;;;;;;7.37;6.67;;;18.40;99.90;;;;;;5086005;28;20450;-71
2023/07/11 03:27:20;;;;;;;7.10;6.50;;;18.40;99.90;;;;;;5087551;28;20408;-72
2023/07/11 03:29:45;;;;;;;8.53;7.00;;;18.40;99.90;;;;;;5089571;28;20205;-68
2023/07/11 03:32:11;;;;;;;7.20;6.50;;;18.60;99.90;;;;;;5090509;28;20184;-71
2023/07/11 03:34:37;;;;;;;7.07;6.43;;;18.50;99.90;;;;;;5090759;28;20208;-72
2023/07/11 03:37:03;;;;;;;7.30;6.40;;;18.60;99.90;;;;;;5086181;28;20216;-70
2023/07/11 03:39:29;;;;;;;6.87;6.17;;;18.60;99.90;;;;;;5090725;28;20441;-71
2023/07/11 03:41:54;;;;;;;6.47;5.83;;;18.60;99.90;;;;;;5090765;28;20198;-71
2023/07/11 03:44:20;;;;;;;7.10;6.40;;;18.70;99.90;;;;;;5089255;28;20189;-71
2023/07/11 03:46:46;;;;;;;5.87;5.40;;;18.70;99.90;;;;;;5089338;28;20191;-71
2023/07/11 03:49:11;;;;;;;6.37;5.10;;;18.70;99.90;;;;;;5090336;28;20599;-71
2023/07/11 03:51:37;;;;;;;7.00;6.40;;;18.80;99.90;;;;;;5092449;28;20214;-71
2023/07/11 03:54:03;;;;;;;6.60;6.00;;;18.90;99.90;;;;;;5087671;28;20198;-71
2023/07/11 03:56:28;;;;;;;6.20;5.43;;;18.90;99.90;;;;;;5072174;28;20171;-71
2023/07/11 03:58:54;;;;;;;5.53;5.03;;;19.00;99.90;;;;;;5090746;28;20176;-71
2023/07/11 04:01:20;;;;;;;5.73;5.00;;;19.10;99.90;;;;;;5087053;28;20207;-71
2023/07/11 04:03:46;;;;;;;7.53;4.77;;;19.10;99.90;;;;;;5090577;28;20202;-71
2023/07/11 04:06:12;;;;;;;5.50;5.00;;;19.20;99.90;;;;;;5090079;28;20357;-71
2023/07/11 04:08:37;;;;;;;5.20;4.80;;;19.20;99.90;;;;;;5084686;28;21540;-73
2023/07/11 04:11:03;;;;;;;5.77;4.80;;;19.20;99.90;;;;;;5086770;28;20481;-71
2023/07/11 04:13:28;;;;;;;4.83;3.77;;;19.30;99.90;;;;;;5090342;28;20180;-71
2023/07/11 04:15:54;;;;;;;4.57;3.60;;;19.40;99.90;;;;;;5090486;28;20177;-71
2023/07/11 04:18:20;;;;;;;6.43;3.57;;;19.40;99.90;;;;;;5087338;28;20184;-71
2023/07/11 04:20:45;;;;;;;5.87;4.80;;;19.50;99.90;;;;;;5086068;28;20196;-71
2023/07/11 04:23:13;;;;;;;4.63;3.77;;;19.60;99.90;;;;;;5090084;28;20261;-71
2023/07/11 04:25:39;;;;;;;5.10;3.20;;;19.70;99.90;;;;;;5082836;28;20183;-69
2023/07/11 04:28:05;;;;;;;5.47;3.40;;;20.30;99.90;;;;;;5085098;28;20511;-71
2023/07/11 04:30:31;;;;;;;3.10;2.80;;;21.20;99.90;;;;;;5090219;28;20217;-73
2023/07/11 04:32:57;;;;;;;4.13;3.33;;;22.00;99.90;;;;;;5089612;28;20434;-71
2023/07/11 04:35:22;;;;;;;4.80;3.23;;;22.60;99.90;;;;;;5070230;28;20549;-72
2023/07/11 04:37:48;;;;;;;4.90;3.30;;;22.80;99.90;;;;;;5089112;28;20632;-72
2023/07/11 04:40:15;;;;;;;4.80;3.10;;;22.90;99.90;;;;;;5086488;28;20210;-72
2023/07/11 04:42:40;;;;;;;4.23;3.10;;;23.20;99.90;;;;;;5084056;28;20241;-72
2023/07/11 04:45:08;;;;;;;3.97;2.47;;;23.10;99.90;;;;;;5086977;28;20427;-72
2023/07/11 04:47:33;;;;;;;3.73;2.70;;;23.50;99.90;;;;;;5088497;28;20243;-71
2023/07/11 04:49:59;;;;;;;4.97;2.90;;;24.00;99.90;;;;;;5087321;28;21030;-72
2023/07/11 04:52:25;;;;;;;3.50;3.00;;;23.70;99.90;;;;;;5084383;28;20179;-73
2023/07/11 04:54:51;;;;;;;4.53;2.60;;;23.40;99.90;;;;;;5087866;28;20208;-71
2023/07/11 04:57:16;;;;;;;5.87;3.83;;;23.00;99.90;;;;;;5089946;28;20406;-72
2023/07/11 04:59:42;;;;;;;5.70;3.20;;;22.60;99.90;;;;;;5088012;28;20644;-71
2023/07/11 05:02:07;;;;;;;5.33;3.37;;;22.70;99.90;;;;;;5087859;28;20179;-72
2023/07/11 05:04:33;;;;;;;4.53;3.07;;;23.00;99.90;;;;;;5080394;28;20189;-71
2023/07/11 05:07:00;;;;;;;6.30;3.30;;;23.30;99.90;;;;;;5086843;28;20173;-72
2023/07/11 05:09:27;;;;;;;4.67;3.27;;;23.40;99.90;;;;;;5091442;28;20615;-71
2023/07/11 05:11:53;;;;;;;5.27;2.70;;;23.50;99.90;;;;;;5088600;28;20431;-70
2023/07/11 05:14:19;;;;;;;5.33;3.33;;;23.90;99.90;;;;;;5081635;28;20566;-71
2023/07/11 05:16:44;;;;;;;6.40;3.03;;;24.30;99.90;;;;;;5067402;28;20197;-70
2023/07/11 05:19:10;;;;;;;4.13;2.87;;;24.20;99.90;;;;;;5085589;28;20624;-71
2023/07/11 05:21:36;;;;;;;4.10;3.27;;;24.30;99.90;;;;;;5084498;28;20189;-71
2023/07/11 05:24:01;;;;;;;5.27;3.63;;;24.20;99.90;;;;;;5087490;28;20370;-71
2023/07/11 05:26:28;;;;;;;4.87;2.77;;;24.10;99.90;;;;;;5082052;28;20636;-71
2023/07/11 05:28:56;;;;;;;3.00;2.70;;;24.10;99.90;;;;;;5093656;28;20169;-72
2023/07/11 05:31:22;;;;;;;3.97;2.37;;;24.70;99.90;;;;;;5059924;28;20474;-72
2023/07/11 05:33:48;;;;;;;2.50;2.10;;;24.50;99.90;;;;;;5088208;28;20533;-70
2023/07/11 05:38:53;;;;;;;2.90;2.17;;;24.90;99.90;;;;;;5086677;28;20177;-69
2023/07/11 05:41:19;;;;;;;2.80;2.10;;;24.80;99.90;;;;;;5090159;28;20759;-69
2023/07/11 05:43:47;;;;;;;2.13;1.93;;;24.90;99.90;;;;;;5088079;28;20427;-69
2023/07/11 05:46:13;;;;;;;3.20;2.83;;;24.80;99.90;;;;;;5089177;28;21060;-69
2023/07/11 05:48:39;;;;;;;3.70;3.40;;;24.50;99.90;;;;;;5087952;28;20415;-69
2023/07/11 05:51:10;;;;;;;3.20;2.30;;;25.00;99.90;;;;;;5088120;28;20585;-68
2023/07/11 05:53:37;;;;;;;4.00;3.70;;;25.30;99.90;;;;;;5089035;28;20631;-68
2023/07/11 05:56:03;;;;;;;2.60;2.40;;;25.90;99.90;;;;;;5089585;28;20467;-69
2023/07/11 05:58:30;;;;;;;4.80;2.80;;;25.50;99.90;;;;;;5093240;28;20407;-68
2023/07/11 06:00:56;;;;;;;3.00;2.67;;;25.20;99.90;;;;;;5090646;28;20451;-68
2023/07/11 06:03:26;;;;;;;3.27;3.00;;;25.20;99.90;;;;;;5092936;28;20415;-67
2023/07/11 06:05:53;;;;;;;4.03;2.93;;;25.40;99.90;;;;;;5093047;28;20479;-69
2023/07/11 06:08:19;;;;;;;3.37;2.80;;;25.50;99.90;;;;;;5090212;28;20454;-70
2023/07/11 06:10:45;;;;;;;3.73;3.33;;;25.70;99.90;;;;;;5087911;28;20569;-67
2023/07/11 06:13:12;;;;;;;3.00;2.70;;;25.90;99.90;;;;;;5093681;28;20435;-68
2023/07/11 06:15:38;;;;;;;5.60;3.20;;;25.80;99.90;;;;;;5094303;28;20846;-69
2023/07/11 06:18:04;;;;;;;3.40;3.10;;;26.00;99.90;;;;;;5092034;28;20449;-69
2023/07/11 06:20:30;;;;;;;3.30;3.00;;;26.30;99.90;;;;;;5088420;28;20201;-68
2023/07/11 06:22:56;;;;;;;5.10;3.60;;;26.50;99.90;;;;;;5089359;28;20416;-69
2023/07/11 06:25:22;;;;;;;5.40;2.53;;;26.00;99.90;;;;;;5090921;28;20419;-69
2023/07/11 06:27:48;;;;;;;2.50;2.30;;;25.80;99.90;;;;;;5097536;28;20587;-69
2023/07/11 06:30:14;;;;;;;2.90;2.60;;;26.10;99.90;;;;;;5089816;28;20443;-68
2023/07/11 06:32:40;;;;;;;2.77;2.50;;;25.80;99.90;;;;;;5089915;28;20639;-69
2023/07/11 06:35:06;;;;;;;4.73;2.73;;;26.10;99.90;;;;;;5091025;28;20495;-68
2023/07/11 06:37:31;;;;;;;3.70;2.77;;;26.50;99.90;;;;;;5092692;28;20250;-69
2023/07/11 06:39:57;;;;;;;5.50;2.60;;;26.40;99.90;;;;;;5092976;28;20431;-70
2023/07/11 06:42:22;;;;;;;5.23;2.70;;;26.80;99.90;;;;;;5088394;28;20279;-68
2023/07/11 06:44:48;;;;;;;2.10;2.00;;;26.50;99.90;;;;;;5096517;28;20552;-69
2023/07/11 06:47:14;;;;;;;5.57;2.40;;;26.70;99.90;;;;;;5081111;28;20180;-68
2023/07/11 06:49:39;;;;;;;7.77;2.73;;;27.40;99.90;;;;;;5086479;28;20239;-72
2023/07/11 06:52:05;;;;;;;2.43;2.10;;;27.60;99.90;;;;;;5085011;28;21632;-71
2023/07/11 06:54:31;;;;;;;5.30;2.10;;;27.60;99.90;;;;;;5094242;28;20736;-70
2023/07/11 06:57:00;;;;;;;3.20;2.47;;;27.30;99.90;;;;;;5082205;28;20451;-71
2023/07/11 06:59:26;;;;;;;3.37;2.70;;;27.40;99.90;;;;;;5095410;28;20191;-71
2023/07/11 07:01:52;;;;;;;4.80;1.90;;;28.30;99.90;;;;;;5087552;28;20446;-69
2023/07/11 07:04:17;;;;;;;5.67;2.50;;;28.20;99.90;;;;;;5085632;28;20414;-70
2023/07/11 07:06:44;;;;;;;2.90;1.97;;;28.20;99.90;;;;;;5076976;28;20178;-71
2023/07/11 07:09:10;;;;;;;3.83;2.73;;;28.20;99.90;;;;;;5077103;28;20174;-70
2023/07/11 07:11:37;;;;;;;15.90;3.00;;;28.10;99.90;;;;;;5083650;28;20881;-70
2023/07/11 07:14:07;;;;;;;4.87;2.10;;;28.40;99.90;;;;;;5076203;28;20870;-70
2023/07/11 07:16:34;;;;;;;13.33;3.97;;;28.40;99.90;;;;;;5082284;28;20503;-70
2023/07/11 07:19:00;;;;;;;2.13;2.00;;;28.80;99.90;;;;;;5088300;28;20454;-70
2023/07/11 07:21:26;;;;;;;2.53;2.33;;;28.40;99.90;;;;;;5076071;28;20522;-70
2023/07/11 07:23:52;;;;;;;6.93;2.40;;;28.60;99.90;;;;;;5087021;28;20718;-71
2023/07/11 07:26:18;;;;;;;6.00;2.90;;;28.20;99.90;;;;;;5078244;28;20173;-70
2023/07/11 07:28:43;;;;;;;16.10;3.80;;;29.10;99.90;;;;;;5081190;28;20177;-71
2023/07/11 07:31:09;;;;;;;4.00;2.67;;;28.70;99.90;;;;;;5075384;28;20244;-71
2023/07/11 07:33:35;;;;;;;6.20;2.70;;;28.00;99.90;;;;;;5079901;28;20585;-70
2023/07/11 07:36:04;;;;;;;4.00;2.30;;;28.60;99.90;;;;;;5077004;28;20165;-71
2023/07/11 07:38:31;;;;;;;3.87;2.27;;;28.90;99.90;;;;;;5087805;28;20411;-71
2023/07/11 07:40:59;;;;;;;2.63;2.17;;;28.80;99.90;;;;;;5088530;28;20458;-72
2023/07/11 07:43:26;;;;;;;4.13;2.30;;;28.30;99.90;;;;;;5090857;28;20411;-69
2023/07/11 07:45:53;;;;;;;2.60;2.27;;;29.50;99.90;;;;;;5088252;28;20427;-69
2023/07/11 07:48:20;;;;;;;2.77;2.47;;;29.30;99.90;;;;;;5086386;28;20858;-70
2023/07/11 07:50:45;;;;;;;2.70;2.40;;;29.50;99.90;;;;;;5085634;28;20470;-70
2023/07/11 07:53:12;;;;;;;3.70;2.10;;;29.30;99.90;;;;;;5083336;28;20475;-71
2023/07/11 07:55:38;;;;;;;3.53;2.13;;;29.80;99.90;;;;;;5083839;28;20208;-71
2023/07/11 07:58:04;;;;;;;3.63;2.33;;;29.80;99.90;;;;;;5085254;28;20420;-70
2023/07/11 08:00:30;;;;;;;2.53;2.10;;;29.60;99.90;;;;;;5090045;28;20196;-71
2023/07/11 08:02:56;;;;;;;3.60;2.13;;;29.30;99.90;;;;;;5087613;28;20908;-70
2023/07/11 08:05:22;;;;;;;2.63;2.17;;;29.00;99.90;;;;;;5086364;28;20458;-71
2023/07/11 08:07:48;;;;;;;3.37;2.80;;;28.70;99.90;;;;;;5082264;28;20739;-70
2023/07/11 08:10:15;;;;;;;2.73;2.03;;;29.10;99.90;;;;;;5085027;28;20687;-70
2023/07/11 08:12:41;;;;;;;5.70;2.13;;;29.70;99.90;;;;;;5088611;28;20522;-70
2023/07/11 08:15:08;;;;;;;2.30;2.10;;;29.70;99.90;;;;;;5090074;28;20668;-70
2023/07/11 08:17:33;;;;;;;5.07;2.70;;;29.70;99.90;;;;;;5087598;28;20436;-70
2023/07/11 08:19:59;;;;;;;2.63;2.00;;;29.20;99.90;;;;;;5086344;28;20439;-70
2023/07/11 08:22:25;;;;;;;2.93;1.77;;;29.80;99.90;;;;;;5086688;28;20207;-69
2023/07/11 08:24:50;;;;;;;2.37;1.70;;;29.60;99.90;;;;;;5090734;28;20173;-69
2023/07/11 08:27:16;;;;;;;2.13;1.93;;;31.70;98.60;;;;;;5089023;28;20288;-70
2023/07/11 08:29:45;;;;;;;2.80;2.23;;;30.90;99.50;;;;;;5087005;28;20184;-67
2023/07/11 08:32:12;;;;;;;2.13;1.93;;;30.80;99.20;;;;;;5084768;28;20175;-70
2023/07/11 08:34:38;;;;;;;2.70;1.83;;;31.20;96.20;;;;;;5087930;28;20790;-71
2023/07/11 08:37:04;;;;;;;1.77;1.40;;;31.20;96.10;;;;;;5085157;28;20496;-70
2023/07/11 08:39:30;;;;;;;4.23;1.87;;;30.70;95.80;;;;;;5090368;28;20631;-72
2023/07/11 08:41:57;;;;;;;2.37;1.47;;;31.00;94.20;;;;;;5086903;28;20678;-71
2023/07/11 08:44:44;;;;;;;2.10;1.50;;;31.80;94.70;;;;;;5089511;28;20173;-70
2023/07/11 08:47:18;;;;;;;2.07;1.43;;;30.70;93.60;;;;;;5090015;28;20403;-70
2023/07/11 08:50:10;;;;;;;1.60;1.50;;;30.70;92.90;;;;;;5090274;28;20457;-70
2023/07/11 08:52:36;;;;;;;5.30;1.70;;;30.80;93.80;;;;;;5083202;28;20429;-69
2023/07/11 08:55:09;;;;;;;1.50;1.13;;;30.30;92.60;;;;;;5086429;28;20467;-70
2023/07/11 08:57:40;;;;;;;3.30;1.40;;;30.00;93.00;;;;;;5071523;28;20286;-70
2023/07/11 09:00:18;;;;;;;2.17;1.50;;;29.70;91.80;;;;;;5071873;28;20441;-70
2023/07/11 09:03:22;;;;;;;3.67;1.60;;;31.10;90.90;;;;;;5084899;28;20499;-70
2023/07/11 09:05:57;;;;;;;2.17;1.77;;;30.80;91.50;;;;;;5083058;28;20406;-69
2023/07/11 09:08:23;;;;;;;2.80;1.53;;;30.40;92.60;;;;;;5084513;28;20425;-70
2023/07/11 09:11:16;;;;;;;3.00;1.63;;;31.00;92.80;;;;;;5083555;28;20873;-70
2023/07/11 09:13:49;;;;;;;4.00;1.70;;;30.60;91.70;;;;;;5086046;28;20495;-71
2023/07/11 09:16:21;;;;;;;2.27;1.40;;;31.20;90.70;;;;;;5089305;28;20853;-71
2023/07/11 09:19:04;;;;;;;2.37;1.30;;;31.00;91.10;;;;;;5081540;28;20497;-70
2023/07/11 09:21:32;;;;;;;1.83;1.43;;;30.50;91.30;;;;;;5088495;28;20411;-69
2023/07/11 09:24:31;;;;;;;2.13;1.67;;;30.10;91.90;;;;;;5089798;28;20399;-70
2023/07/11 09:27:16;;;;;;;3.23;1.53;;;31.20;90.40;;;;;;5080841;28;20439;-71
2023/07/11 09:29:45;;;;;;;3.27;1.80;;;30.30;90.60;;;;;;5094093;28;20415;-70
2023/07/11 09:32:12;;;;;;;3.77;1.87;;;30.90;91.80;;;;;;5086166;28;20512;-70
2023/07/11 09:34:42;;;;;;;3.70;2.33;;;31.40;89.20;;;;;;5094124;28;20465;-70
2023/07/11 09:37:33;;;;;;;3.50;1.90;;;31.30;90.70;;;;;;5092873;28;20865;-70
2023/07/11 09:40:13;;;;;;;2.10;1.37;;;31.00;87.10;;;;;;5087402;28;20430;-70
2023/07/11 09:42:58;;;;;;;2.63;1.70;;;32.20;86.40;;;;;;5090749;28;20890;-70
2023/07/11 09:45:37;;;;;;;1.73;1.63;;;31.10;86.80;;;;;;5093281;28;20411;-70
2023/07/11 09:48:14;;;;;;;3.50;1.47;;;31.30;88.30;;;;;;5088790;28;20395;-70
2023/07/11 09:51:08;;;;;;;2.53;1.50;;;32.10;85.30;;;;;;5092698;28;20449;-69
2023/07/11 09:53:34;;;;;;;1.90;1.70;;;31.30;84.70;;;;;;5091566;28;20399;-70
2023/07/11 09:56:09;;;;;;;7.63;2.10;;;31.00;87.50;;;;;;5095025;28;20460;-70
2023/07/11 09:58:34;;;;;;;2.90;1.60;;;30.80;87.80;;;;;;5088533;28;20173;-70
2023/07/11 10:01:03;;;;;;;2.27;1.77;;;30.50;89.00;;;;;;5092497;28;20916;-71
2023/07/11 10:03:34;;;;;;;2.77;1.40;;;30.90;87.60;;;;;;5089392;28;20261;-70
2023/07/11 10:06:01;;;;;;;2.67;1.37;;;31.70;85.00;;;;;;5093231;28;20491;-70
2023/07/11 10:08:29;;;;;;;4.80;1.77;;;30.80;85.70;;;;;;5089388;28;20412;-71
2023/07/11 10:11:05;;;;;;;1.57;1.47;;;31.00;84.30;;;;;;5093194;28;20456;-68
2023/07/11 10:13:31;;;;;;;4.30;2.50;;;31.90;80.10;;;;;;5093198;28;20403;-69
2023/07/11 10:15:58;;;;;;;2.30;1.70;;;30.20;83.90;;;;;;5093043;28;20400;-70
2023/07/11 10:18:32;;;;;;;1.97;1.77;;;29.80;85.10;;;;;;5086945;28;20426;-70
2023/07/11 10:21:18;;;;;;;1.73;1.50;;;29.50;88.00;;;;;;5090773;28;20446;-72
2023/07/11 10:23:47;;;;;;;3.20;2.37;;;29.30;90.70;;;;;;5089958;28;20709;-68
2023/07/11 10:26:21;;;;;;;3.53;2.40;;;29.10;91.10;;;;;;5092422;28;20399;-69
2023/07/11 10:29:07;;;;;;;3.50;2.67;;;29.50;91.60;;;;;;5082028;28;20436;-69
2023/07/11 10:31:40;;;;;;;1.93;1.70;;;29.00;90.90;;;;;;5088087;28;20451;-70
2023/07/11 10:34:25;;;;;;;2.07;1.67;;;29.00;91.80;;;;;;5090273;28;20549;-70
2023/07/11 10:36:53;;;;;;;2.90;2.10;;;28.70;90.60;;;;;;5081936;28;20423;-69
2023/07/11 10:39:45;;;;;;;7.03;2.03;;;28.90;88.30;;;;;;5085414;28;20409;-66
2023/07/11 10:42:29;;;;;;;2.73;1.90;;;28.80;90.90;;;;;;5081406;28;20849;-69
2023/07/11 10:45:07;;;;;;;1.67;1.40;;;29.00;90.70;;;;;;5085399;28;20399;-70
2023/07/11 10:47:39;;;;;;;2.03;1.80;;;29.30;87.10;;;;;;5086752;28;20431;-69
2023/07/11 10:50:27;;;;;;;3.30;2.00;;;28.90;90.20;;;;;;5091747;28;20438;-69
2023/07/11 10:52:57;;;;;;;4.43;1.70;;;28.70;90.60;;;;;;5081784;28;20523;-69
2023/07/11 10:55:27;;;;;;;3.87;2.73;;;28.60;92.60;;;;;;5091989;28;20531;-70
2023/07/11 10:57:53;;;;;;;4.83;3.47;;;28.70;91.80;;;;;;5069223;28;20511;-70
2023/07/11 11:00:41;;;;;;;6.47;4.57;;;28.30;91.20;;;;;;5091622;28;20514;-70
2023/07/11 11:03:38;;;;;;;2.77;2.33;;;28.60;90.30;;;;;;5088149;28;20468;-71
2023/07/11 11:06:22;;;;;;;6.17;2.00;;;29.20;91.20;;;;;;5086326;28;20468;-70
2023/07/11 11:09:15;;;;;;;5.17;3.87;;;29.20;90.80;;;;;;5084228;28;20506;-70
2023/07/11 11:12:01;;;;;;;4.23;2.90;;;29.00;89.40;;;;;;5089200;28;20449;-72
2023/07/11 11:14:32;;;;;;;5.03;2.97;;;28.80;88.30;;;;;;5091886;28;20913;-71
2023/07/11 11:17:27;;;;;;;3.33;2.97;;;28.60;90.60;;;;;;5091993;28;20479;-69
2023/07/11 11:20:27;;;;;;;4.30;3.00;;;28.80;90.50;;;;;;5081772;28;20419;-70
2023/07/11 11:23:30;;;;;;;7.00;2.40;;;29.10;91.00;;;;;;5059056;28;20433;-69
2023/07/11 11:26:07;;;;;;;2.80;2.50;;;29.00;90.20;;;;;;5084763;28;20395;-71
2023/07/11 11:28:51;;;;;;;3.50;2.57;;;28.60;89.20;;;;;;5088842;28;20742;-71
2023/07/11 11:31:25;;;;;;;2.13;1.90;;;29.00;89.10;;;;;;5091383;28;20533;-70
2023/07/11 11:33:50;;;;;;;2.30;2.10;;;29.00;90.50;;;;;;5088812;28;20556;-70
2023/07/11 11:36:31;;;;;;;3.30;2.40;;;28.90;88.80;;;;;;5091347;28;20403;-70
2023/07/11 11:39:12;;;;;;;3.93;2.43;;;28.70;89.00;;;;;;5088487;28;20208;-69
2023/07/11 11:41:51;;;;;;;2.83;2.40;;;28.80;87.70;;;;;;5086448;28;20812;-70
2023/07/11 11:44:20;;;;;;;3.23;2.13;;;28.70;86.50;;;;;;5091167;28;20433;-70
2023/07/11 11:46:46;;;;;;;2.03;1.83;;;28.90;89.50;;;;;;5092088;28;20410;-67
2023/07/11 11:49:13;;;;;;;3.17;2.40;;;28.70;88.70;;;;;;5089541;28;20414;-71
2023/07/11 11:51:41;;;;;;;2.97;2.33;;;28.60;87.70;;;;;;5091444;28;20859;-69
2023/07/11 11:54:21;;;;;;;2.87;2.57;;;28.90;88.40;;;;;;5091715;28;20763;-70
2023/07/11 11:56:56;;;;;;;5.40;2.63;;;28.90;85.00;;;;;;5086987;28;20534;-70
2023/07/11 11:59:27;;;;;;;5.70;2.07;;;29.20;85.90;;;;;;5090888;28;20965;-69
2023/07/11 12:01:53;;;;;;;3.70;2.10;;;29.20;88.20;;;;;;5083824;28;20798;-71
2023/07/11 12:04:28;;;;;;;4.17;2.70;;;29.10;87.30;;;;;;5087701;28;20416;-71
2023/07/11 12:07:12;;;;;;;3.47;2.23;;;29.00;90.00;;;;;;5090444;28;20214;-69
2023/07/11 12:09:47;;;;;;;6.60;3.63;;;28.80;90.50;;;;;;5088678;28;20415;-71
2023/07/11 12:12:21;;;;;;;5.50;2.50;;;28.80;90.60;;;;;;5068369;28;20913;-69
2023/07/11 12:14:52;;;;;;;4.77;2.70;;;29.00;90.60;;;;;;5080227;28;20553;-69
2023/07/11 12:17:43;;;;;;;2.50;2.30;;;29.00;89.60;;;;;;5090380;28;20427;-70
2023/07/11 12:20:09;;;;;;;2.83;2.10;;;29.00;87.90;;;;;;5077258;28;20435;-69
2023/07/11 12:22:38;;;;;;;3.00;2.57;;;29.00;90.00;;;;;;5088891;28;20682;-69
2023/07/11 12:25:06;;;;;;;4.10;2.67;;;28.70;88.60;;;;;;5085389;28;20771;-70
2023/07/11 12:27:35;;;;;;;3.07;2.60;;;28.80;90.10;;;;;;5090487;28;20415;-70
2023/07/11 12:30:22;;;;;;;5.27;2.30;;;29.00;89.20;;;;;;5085051;28;20498;-70
2023/07/11 12:32:51;;;;;;;4.50;2.60;;;29.00;89.60;;;;;;5087133;28;20426;-70
2023/07/11 12:35:22;;;;;;;2.50;2.30;;;29.00;90.40;;;;;;5090187;28;20542;-70
2023/07/11 12:38:01;;;;;;;2.97;2.40;;;29.00;90.50;;;;;;5082583;28;20469;-70
2023/07/11 12:40:53;;;;;;;7.13;3.10;;;29.10;90.50;;;;;;5086994;28;20431;-69
2023/07/11 12:43:22;;;;;;;2.53;2.10;;;29.20;88.00;;;;;;5086276;28;20497;-69
2023/07/11 12:45:57;;;;;;;2.63;2.37;;;29.20;88.50;;;;;;5084252;28;20498;-71
2023/07/11 12:48:36;;;;;;;4.97;2.73;;;29.40;85.70;;;;;;5085065;28;20407;-70
2023/07/11 12:51:06;;;;;;;3.27;2.53;;;29.10;86.60;;;;;;5085094;28;20511;-70
2023/07/11 12:53:38;;;;;;;2.80;2.10;;;29.10;88.10;;;;;;5090642;28;20407;-70
2023/07/11 12:56:12;;;;;;;2.63;2.43;;;29.20;88.30;;;;;;5086670;28;20435;-70
2023/07/11 12:58:39;;;;;;;3.00;2.60;;;29.30;86.30;;;;;;5087199;28;20418;-70
2023/07/11 13:01:13;;;;;;;3.93;2.60;;;28.90;86.00;;;;;;5088696;28;20419;-70